Time;durP1;ratioP1;P1;durP2;ratioP2;P2;SDS_P1;SDS_P2;PMS_P1;PMS_P2;Temp;Humidity;BMP_temperature;BMP_pressure;BME280_temperature;BME280_humidity;BME280_pressure;Samples;Min_cycle;Max_cycle;Signal;HPM_P1;HPM_P2
2021/12/23 00:02:21;;;;;;;4.35;2.38;;;-0.30;95.30;;;;;;5098791;28;20678;-58
2021/12/23 00:04:46;;;;;;;3.22;1.95;;;-0.30;95.40;;;;;;5099088;28;20032;-55
2021/12/23 00:07:12;;;;;;;4.95;2.08;;;-0.20;94.10;;;;;;5095604;28;20040;-59
2021/12/23 00:12:22;;;;;;;4.75;2.78;;;-0.10;93.80;;;;;;5098534;28;20134;-57
2021/12/23 00:14:50;;;;;;;4.05;2.03;;;-0.10;93.90;;;;;;5101682;28;20074;-54
2021/12/23 00:23:24;;;;;;;4.20;2.17;;;0.00;95.30;;;;;;5087320;28;20063;-58
2021/12/23 00:25:30;;;;;;;3.20;2.28;;;0.00;95.70;;;;;;5079093;28;20040;-58
2021/12/23 00:27:56;;;;;;;3.47;2.30;;;0.00;95.70;;;;;;5084058;28;20681;-56
2021/12/23 00:30:21;;;;;;;3.88;2.50;;;0.00;96.20;;;;;;5078099;28;20468;-57
2021/12/23 00:32:47;;;;;;;6.25;3.08;;;0.00;96.50;;;;;;5087002;28;20043;-58
2021/12/23 00:35:13;;;;;;;6.10;2.67;;;0.00;95.70;;;;;;5084276;28;20036;-57
2021/12/23 00:37:42;;;;;;;6.07;3.28;;;0.00;95.40;;;;;;5087056;28;20108;-58
2021/12/23 00:40:11;;;;;;;5.63;2.78;;;0.10;95.50;;;;;;5087419;28;20040;-58
2021/12/23 00:42:37;;;;;;;6.38;2.88;;;0.10;95.20;;;;;;5088640;28;20043;-59
2021/12/23 00:45:04;;;;;;;8.68;3.08;;;0.10;94.10;;;;;;5087344;28;20131;-58
2021/12/23 00:47:30;;;;;;;6.88;2.42;;;0.20;92.80;;;;;;5084414;28;20486;-58
2021/12/23 00:49:56;;;;;;;7.38;2.28;;;0.30;91.90;;;;;;5088496;28;20028;-59
2021/12/23 00:52:25;;;;;;;5.30;2.88;;;0.30;92.60;;;;;;5083086;28;20039;-56
2021/12/23 00:54:50;;;;;;;7.70;4.00;;;0.30;92.30;;;;;;5085481;28;20059;-54
2021/12/23 00:57:17;;;;;;;5.65;2.90;;;0.40;92.60;;;;;;5087056;28;20379;-56
2021/12/23 00:59:43;;;;;;;7.20;3.15;;;0.40;93.30;;;;;;5087536;28;21018;-59
2021/12/23 01:02:11;;;;;;;7.28;3.80;;;0.40;93.20;;;;;;5083412;28;20068;-57
2021/12/23 01:04:37;;;;;;;9.48;3.70;;;0.40;91.70;;;;;;5085572;28;20052;-57
2021/12/23 01:07:03;;;;;;;6.93;4.00;;;0.50;91.80;;;;;;5084125;28;20051;-56
2021/12/23 01:09:29;;;;;;;11.02;4.00;;;0.50;91.80;;;;;;5088385;28;20469;-58
2021/12/23 01:11:55;;;;;;;6.55;3.50;;;0.50;92.30;;;;;;5083950;28;20051;-58
2021/12/23 01:17:12;;;;;;;6.60;3.92;;;0.50;93.10;;;;;;5078214;28;20040;-53
2021/12/23 01:19:39;;;;;;;7.47;4.28;;;0.50;94.20;;;;;;5084112;28;20040;-58
2021/12/23 01:22:06;;;;;;;6.03;3.65;;;0.50;93.70;;;;;;5086249;28;20410;-57
2021/12/23 01:24:33;;;;;;;10.18;4.20;;;0.50;92.30;;;;;;5087139;28;20050;-58
2021/12/23 01:27:00;;;;;;;6.22;3.50;;;0.60;92.80;;;;;;5079771;28;20093;-58
2021/12/23 01:29:26;;;;;;;8.55;4.15;;;0.50;94.50;;;;;;5086495;28;20040;-57
2021/12/23 01:31:51;;;;;;;10.13;4.50;;;0.50;93.70;;;;;;5077345;28;20443;-57
2021/12/23 01:34:17;;;;;;;7.85;4.28;;;0.60;92.60;;;;;;5086025;28;20123;-58
2021/12/23 01:36:42;;;;;;;8.40;4.03;;;0.60;94.30;;;;;;5086131;28;20074;-57
2021/12/23 01:39:08;;;;;;;7.00;4.28;;;0.50;94.60;;;;;;5086890;28;20039;-56
2021/12/23 01:41:33;;;;;;;14.30;4.50;;;0.50;94.80;;;;;;5085102;28;20039;-56
2021/12/23 01:43:59;;;;;;;9.82;5.50;;;0.60;94.10;;;;;;5084671;28;20407;-58
2021/12/23 01:46:25;;;;;;;9.45;4.63;;;0.60;93.80;;;;;;5078138;28;20047;-56
2021/12/23 01:48:52;;;;;;;8.88;4.78;;;0.60;93.70;;;;;;5082150;28;20105;-57
2021/12/23 01:51:17;;;;;;;7.45;3.97;;;0.70;93.60;;;;;;5078480;28;20035;-55
2021/12/23 01:53:43;;;;;;;7.07;4.38;;;0.70;94.50;;;;;;5080976;28;20047;-56
2021/12/23 01:56:09;;;;;;;9.07;4.22;;;0.70;94.70;;;;;;5074323;28;20096;-58
2021/12/23 01:58:39;;;;;;;8.20;4.53;;;0.70;95.20;;;;;;5082453;28;20036;-58
2021/12/23 02:01:08;;;;;;;8.10;4.20;;;0.70;95.70;;;;;;5074886;28;20511;-58
2021/12/23 02:03:34;;;;;;;8.85;4.38;;;0.60;96.10;;;;;;5086016;28;20072;-55
2021/12/23 02:06:00;;;;;;;8.23;4.18;;;0.70;95.20;;;;;;5073663;28;20051;-56
2021/12/23 02:08:26;;;;;;;8.10;4.43;;;0.70;95.80;;;;;;5087218;28;20036;-57
2021/12/23 02:10:55;;;;;;;9.27;4.25;;;0.60;96.50;;;;;;5080271;28;20092;-58
2021/12/23 02:13:22;;;;;;;8.88;4.90;;;0.60;96.80;;;;;;5086380;28;20028;-58
2021/12/23 02:15:47;;;;;;;11.00;5.82;;;0.50;97.10;;;;;;5080958;28;20169;-57
2021/12/23 02:18:13;;;;;;;9.85;5.15;;;0.40;97.30;;;;;;5087467;28;20115;-54
2021/12/23 02:20:39;;;;;;;13.95;5.22;;;0.50;96.50;;;;;;5081599;28;20498;-57
2021/12/23 02:23:08;;;;;;;8.93;4.72;;;0.50;97.10;;;;;;5085803;28;20040;-59
2021/12/23 02:25:34;;;;;;;8.15;4.75;;;0.50;97.00;;;;;;5072980;28;20548;-58
2021/12/23 02:28:07;;;;;;;7.93;4.25;;;0.50;97.90;;;;;;5083632;28;20174;-57
2021/12/23 02:30:36;;;;;;;10.85;5.50;;;0.50;97.40;;;;;;5074964;28;20489;-56
2021/12/23 02:33:03;;;;;;;12.77;5.03;;;0.50;98.00;;;;;;5086139;28;20058;-56
2021/12/23 02:35:29;;;;;;;10.25;4.88;;;0.40;98.10;;;;;;5078326;28;20617;-58
2021/12/23 02:37:55;;;;;;;8.50;4.60;;;0.50;98.70;;;;;;5084593;28;20039;-58
2021/12/23 02:40:25;;;;;;;8.95;5.10;;;0.50;98.20;;;;;;5081327;28;20032;-59
2021/12/23 02:42:51;;;;;;;8.52;4.57;;;0.50;97.50;;;;;;5084957;28;20044;-58
2021/12/23 02:45:16;;;;;;;8.93;4.60;;;0.50;97.10;;;;;;5081680;28;20042;-59
2021/12/23 02:47:42;;;;;;;9.85;4.90;;;0.60;97.30;;;;;;5077465;28;20634;-58
2021/12/23 02:50:08;;;;;;;11.25;4.85;;;0.50;98.10;;;;;;5079520;28;20043;-58
2021/12/23 02:52:36;;;;;;;11.40;5.50;;;0.60;98.50;;;;;;5070392;28;20064;-57
2021/12/23 02:55:04;;;;;;;18.95;5.50;;;0.60;97.90;;;;;;5073306;28;20113;-59
2021/12/23 02:57:32;;;;;;;9.82;5.35;;;0.60;96.50;;;;;;5070198;28;20036;-56
2021/12/23 02:59:58;;;;;;;9.75;5.05;;;0.60;97.10;;;;;;5080887;28;20403;-58
2021/12/23 03:02:24;;;;;;;10.65;5.60;;;0.70;97.20;;;;;;5080293;28;20036;-58
2021/12/23 03:04:50;;;;;;;9.20;4.70;;;0.70;96.50;;;;;;5079058;28;20071;-57
2021/12/23 03:07:16;;;;;;;11.23;4.45;;;0.70;97.00;;;;;;5079211;28;20072;-58
2021/12/23 03:09:45;;;;;;;8.85;4.78;;;0.80;97.10;;;;;;5078613;28;20090;-55
2021/12/23 03:12:11;;;;;;;7.00;4.15;;;0.80;96.80;;;;;;5079129;28;20119;-58
2021/12/23 03:14:38;;;;;;;13.15;4.22;;;0.90;96.10;;;;;;5076962;28;20164;-59
2021/12/23 03:17:04;;;;;;;8.75;4.65;;;0.90;96.50;;;;;;5076641;28;20066;-57
2021/12/23 03:19:29;;;;;;;9.77;4.60;;;0.90;97.40;;;;;;5083919;28;20407;-58
2021/12/23 03:21:55;;;;;;;8.63;4.38;;;0.90;96.40;;;;;;5076733;28;20036;-55
2021/12/23 03:24:20;;;;;;;9.38;4.68;;;0.90;96.00;;;;;;5077128;28;20033;-59
2021/12/23 03:26:46;;;;;;;10.32;5.47;;;0.90;95.20;;;;;;5074256;28;20613;-58
2021/12/23 03:29:12;;;;;;;10.23;5.07;;;0.90;95.60;;;;;;5085547;28;20504;-58
2021/12/23 03:31:39;;;;;;;8.57;4.68;;;0.90;95.60;;;;;;5079854;28;20043;-59
2021/12/23 03:34:05;;;;;;;9.45;4.43;;;0.90;95.90;;;;;;5083928;28;20563;-56
2021/12/23 03:36:31;;;;;;;7.32;3.90;;;0.90;95.70;;;;;;5080055;28;20144;-59
2021/12/23 03:38:56;;;;;;;7.55;3.85;;;0.90;93.90;;;;;;5086272;28;20040;-58
2021/12/23 03:41:22;;;;;;;7.43;3.83;;;0.90;94.00;;;;;;5080527;28;20043;-59
2021/12/23 03:43:48;;;;;;;7.28;4.05;;;0.90;94.30;;;;;;5085022;28;20570;-55
2021/12/23 03:46:13;;;;;;;6.72;3.90;;;0.90;93.50;;;;;;5080025;28;20094;-59
2021/12/23 03:48:39;;;;;;;7.07;3.85;;;1.00;92.80;;;;;;5085537;28;20040;-57
2021/12/23 03:51:04;;;;;;;6.68;3.67;;;1.00;93.60;;;;;;5080966;28;20059;-58
2021/12/23 03:53:30;;;;;;;7.38;4.03;;;1.00;93.30;;;;;;5085309;28;20517;-57
2021/12/23 03:55:56;;;;;;;7.35;3.95;;;1.00;93.60;;;;;;5077054;28;20034;-55
2021/12/23 03:58:22;;;;;;;6.88;3.90;;;1.10;93.40;;;;;;5084411;28;20039;-59
2021/12/23 04:00:48;;;;;;;8.40;4.20;;;1.10;93.40;;;;;;5083257;28;20652;-59
2021/12/23 04:03:14;;;;;;;7.18;4.00;;;1.10;93.00;;;;;;5088461;28;20414;-59
2021/12/23 04:05:40;;;;;;;10.40;5.00;;;1.10;93.50;;;;;;5068580;28;20040;-58
2021/12/23 04:08:06;;;;;;;9.40;4.70;;;1.20;93.40;;;;;;5089315;28;20059;-53
2021/12/23 04:10:32;;;;;;;8.38;3.80;;;1.20;94.70;;;;;;5088314;28;20028;-59
2021/12/23 04:12:57;;;;;;;7.18;4.25;;;1.20;94.70;;;;;;5088671;28;20032;-59
2021/12/23 04:15:24;;;;;;;12.23;4.85;;;1.20;94.30;;;;;;5081772;28;20553;-59
2021/12/23 04:17:50;;;;;;;7.45;4.63;;;1.20;94.50;;;;;;5088393;28;20036;-58
2021/12/23 04:20:22;;;;;;;8.50;4.47;;;1.20;95.00;;;;;;5084992;28;20035;-57
2021/12/23 04:22:53;;;;;;;9.02;4.90;;;1.20;94.00;;;;;;5088722;28;20490;-55
2021/12/23 04:25:21;;;;;;;9.18;5.03;;;1.20;96.20;;;;;;5080414;28;20041;-58
2021/12/23 04:27:48;;;;;;;10.45;5.50;;;1.20;95.40;;;;;;5075739;28;20043;-61
2021/12/23 04:30:15;;;;;;;8.90;5.18;;;1.20;95.50;;;;;;5077465;28;20040;-56
2021/12/23 04:32:41;;;;;;;9.27;4.97;;;1.20;96.10;;;;;;5087467;28;20128;-56
2021/12/23 04:35:07;;;;;;;9.93;5.35;;;1.20;95.70;;;;;;5082305;28;20078;-56
2021/12/23 04:37:34;;;;;;;10.65;5.78;;;1.20;96.10;;;;;;5086157;28;20454;-58
2021/12/23 04:40:00;;;;;;;9.20;5.28;;;1.30;96.50;;;;;;5085390;28;20036;-59
2021/12/23 04:42:25;;;;;;;12.70;5.60;;;1.30;96.10;;;;;;5085712;28;20041;-58
2021/12/23 04:44:52;;;;;;;9.40;5.07;;;1.30;96.20;;;;;;5077810;28;20408;-56
2021/12/23 04:47:18;;;;;;;11.30;5.40;;;1.20;97.50;;;;;;5076992;28;20085;-59
2021/12/23 04:49:43;;;;;;;9.25;5.28;;;1.20;98.00;;;;;;5085295;28;20040;-59
2021/12/23 04:52:09;;;;;;;9.57;5.07;;;1.20;98.00;;;;;;5077055;28;20036;-57
2021/12/23 04:54:35;;;;;;;13.50;5.32;;;1.20;98.40;;;;;;5085619;28;20036;-57
2021/12/23 04:57:00;;;;;;;10.43;5.90;;;1.10;99.00;;;;;;5079290;28;20032;-59
2021/12/23 04:59:26;;;;;;;12.70;5.63;;;1.10;98.50;;;;;;5087340;28;20066;-58
2021/12/23 05:01:52;;;;;;;10.60;5.15;;;1.10;98.40;;;;;;5082809;28;20430;-57
2021/12/23 05:04:17;;;;;;;13.13;5.63;;;1.10;98.90;;;;;;5088176;28;20043;-59
2021/12/23 05:06:43;;;;;;;14.02;6.28;;;1.20;98.80;;;;;;5084188;28;20082;-57
2021/12/23 05:09:08;;;;;;;8.23;4.80;;;1.20;98.60;;;;;;5089327;28;20036;-59
2021/12/23 05:11:34;;;;;;;13.18;5.57;;;1.20;98.40;;;;;;5084550;28;20037;-56
2021/12/23 05:14:00;;;;;;;11.32;5.47;;;1.20;98.20;;;;;;5087079;28;20191;-57
2021/12/23 05:16:25;;;;;;;10.52;6.35;;;1.20;98.70;;;;;;5079924;28;20044;-58
2021/12/23 05:18:51;;;;;;;10.13;5.95;;;1.10;99.40;;;;;;5087181;28;20036;-56
2021/12/23 05:21:16;;;;;;;10.52;5.70;;;1.10;98.50;;;;;;5084842;28;20104;-59
2021/12/23 05:23:42;;;;;;;12.27;6.40;;;1.10;98.90;;;;;;5086713;28;20047;-56
2021/12/23 05:26:08;;;;;;;15.45;8.52;;;1.20;97.80;;;;;;5087327;28;20040;-58
2021/12/23 05:28:35;;;;;;;20.65;8.70;;;1.20;97.40;;;;;;5087387;28;20044;-56
2021/12/23 05:31:01;;;;;;;17.35;9.18;;;1.30;97.60;;;;;;5071525;28;20046;-57
2021/12/23 05:33:26;;;;;;;15.93;8.18;;;1.30;97.20;;;;;;5074277;28;20045;-58
2021/12/23 05:35:52;;;;;;;17.98;9.35;;;1.30;97.80;;;;;;5080152;28;20039;-59
2021/12/23 05:38:18;;;;;;;17.58;9.07;;;1.30;98.00;;;;;;5079963;28;20499;-56
2021/12/23 05:40:44;;;;;;;18.33;9.63;;;1.30;98.30;;;;;;5079939;28;20535;-57
2021/12/23 05:43:09;;;;;;;20.30;8.98;;;1.20;98.80;;;;;;5080074;28;20062;-56
2021/12/23 05:45:35;;;;;;;17.27;9.35;;;1.20;98.20;;;;;;5077289;28;20106;-58
2021/12/23 05:48:01;;;;;;;20.02;8.65;;;1.10;99.00;;;;;;5077279;28;20086;-57
2021/12/23 05:50:27;;;;;;;17.50;8.98;;;1.00;99.50;;;;;;5086833;28;20098;-60
2021/12/23 05:52:54;;;;;;;16.95;9.20;;;1.00;99.30;;;;;;5086906;28;20119;-59
2021/12/23 05:55:20;;;;;;;18.38;8.88;;;1.00;99.30;;;;;;5072474;28;20034;-57
2021/12/23 05:57:46;;;;;;;17.95;8.60;;;0.90;98.80;;;;;;5073581;28;20028;-56
2021/12/23 06:00:16;;;;;;;17.52;9.15;;;1.00;97.40;;;;;;5076059;28;20111;-56
2021/12/23 06:02:42;;;;;;;19.77;8.68;;;1.10;97.20;;;;;;5072440;28;20040;-59
2021/12/23 06:05:08;;;;;;;19.50;10.00;;;1.10;97.00;;;;;;5080691;28;20043;-64
2021/12/23 06:07:34;;;;;;;18.65;9.82;;;1.10;97.60;;;;;;5081467;28;20150;-54
2021/12/23 06:09:59;;;;;;;22.27;10.50;;;1.10;97.60;;;;;;5076473;28;20115;-61
2021/12/23 06:12:26;;;;;;;21.05;9.82;;;1.10;97.80;;;;;;5083498;28;20044;-60
2021/12/23 06:14:52;;;;;;;20.55;10.25;;;1.10;98.00;;;;;;5082521;28;20125;-58
2021/12/23 06:17:18;;;;;;;27.45;11.25;;;1.10;98.10;;;;;;5080315;28;20700;-59
2021/12/23 06:19:44;;;;;;;20.13;10.93;;;1.10;98.00;;;;;;5085775;28;20090;-62
2021/12/23 06:22:09;;;;;;;20.52;10.90;;;1.10;97.90;;;;;;5080545;28;20039;-60
2021/12/23 06:24:35;;;;;;;16.77;9.85;;;1.10;97.50;;;;;;5082045;28;20078;-59
2021/12/23 06:27:01;;;;;;;21.38;10.60;;;1.10;97.80;;;;;;5074512;28;20036;-59
2021/12/23 06:29:26;;;;;;;17.83;9.68;;;1.10;98.20;;;;;;5086166;28;20652;-58
2021/12/23 06:31:52;;;;;;;21.92;10.43;;;1.10;97.80;;;;;;5083261;28;20032;-61
2021/12/23 06:34:17;;;;;;;23.10;10.93;;;1.10;98.30;;;;;;5084383;28;20035;-58
2021/12/23 06:36:44;;;;;;;21.42;11.00;;;1.10;98.10;;;;;;5075778;28;20036;-59
2021/12/23 06:39:10;;;;;;;20.90;10.85;;;1.10;97.90;;;;;;5083151;28;20048;-54
2021/12/23 06:41:35;;;;;;;19.95;11.32;;;1.10;96.80;;;;;;5085122;28;20577;-58
2021/12/23 06:44:01;;;;;;;20.60;10.75;;;1.10;96.60;;;;;;5075592;28;20036;-57
2021/12/23 06:46:27;;;;;;;23.25;11.20;;;1.10;96.10;;;;;;5069986;28;20138;-54
2021/12/23 06:48:52;;;;;;;21.27;10.85;;;1.10;95.70;;;;;;5086710;28;20812;-58
2021/12/23 06:51:18;;;;;;;19.00;10.30;;;1.10;96.50;;;;;;5070723;28;20041;-56
2021/12/23 06:53:44;;;;;;;21.58;11.07;;;1.10;96.90;;;;;;5068767;28;20154;-59
2021/12/23 06:56:11;;;;;;;24.83;11.35;;;1.10;97.00;;;;;;5073307;28;20123;-60
2021/12/23 06:58:39;;;;;;;23.80;12.23;;;1.10;97.30;;;;;;5086557;28;20043;-63
2021/12/23 07:01:05;;;;;;;23.25;11.15;;;1.10;97.30;;;;;;5079831;28;20331;-60
2021/12/23 07:04:17;;;;;;;23.33;11.07;;;1.10;97.40;;;;;;5077830;28;20028;-61
2021/12/23 07:06:22;;;;;;;22.42;11.18;;;1.10;97.30;;;;;;5067508;28;20045;-58
2021/12/23 07:08:48;;;;;;;36.08;10.88;;;1.10;97.70;;;;;;5071856;28;20043;-56
2021/12/23 07:11:13;;;;;;;23.42;11.23;;;1.10;98.10;;;;;;5072979;28;20031;-58
2021/12/23 07:13:39;;;;;;;17.63;10.18;;;1.10;97.90;;;;;;5069572;28;20063;-57
2021/12/23 07:16:05;;;;;;;23.33;11.38;;;1.10;97.90;;;;;;5073072;28;20032;-57
2021/12/23 07:18:30;;;;;;;23.73;11.35;;;1.10;97.50;;;;;;5084052;28;20032;-58
2021/12/23 07:20:56;;;;;;;21.63;10.32;;;1.10;97.70;;;;;;5080315;28;20032;-58
2021/12/23 07:23:21;;;;;;;22.02;10.07;;;1.10;97.90;;;;;;5084348;28;20040;-58
2021/12/23 07:25:47;;;;;;;22.92;11.85;;;1.10;97.20;;;;;;5074684;28;20049;-58
2021/12/23 07:28:13;;;;;;;21.70;10.50;;;1.10;97.60;;;;;;5087849;28;20505;-59
2021/12/23 07:30:38;;;;;;;18.98;10.30;;;1.10;97.30;;;;;;5082609;28;20037;-54
2021/12/23 07:33:04;;;;;;;24.85;10.95;;;1.10;97.70;;;;;;5089182;28;20719;-57
2021/12/23 07:35:30;;;;;;;22.35;11.13;;;1.10;97.90;;;;;;5082519;28;20127;-58
2021/12/23 07:37:59;;;;;;;22.15;11.45;;;1.10;97.60;;;;;;5089922;28;20428;-58
2021/12/23 07:40:25;;;;;;;19.88;10.43;;;1.10;97.20;;;;;;5084460;28;20043;-58
2021/12/23 07:42:56;;;;;;;21.60;9.90;;;1.20;97.20;;;;;;5088708;28;20039;-55
2021/12/23 07:45:27;;;;;;;18.00;9.52;;;1.10;97.80;;;;;;5068385;28;20046;-58
2021/12/23 07:47:52;;;;;;;20.55;9.57;;;1.10;97.90;;;;;;5088145;28;20542;-55
2021/12/23 07:50:19;;;;;;;19.67;9.15;;;1.10;97.30;;;;;;5085329;28;20032;-58
2021/12/23 07:52:44;;;;;;;25.10;10.10;;;1.10;97.30;;;;;;5089685;28;20495;-58
2021/12/23 07:55:10;;;;;;;15.20;7.80;;;1.20;97.10;;;;;;5080884;28;20048;-58
2021/12/23 07:57:36;;;;;;;17.30;8.52;;;1.20;98.20;;;;;;5078152;28;20487;-58
2021/12/23 08:00:04;;;;;;;16.42;8.32;;;1.20;95.80;;;;;;5084866;28;20553;-57
2021/12/23 08:02:29;;;;;;;22.65;8.52;;;1.20;96.90;;;;;;5083273;28;20047;-57
2021/12/23 08:04:55;;;;;;;26.27;9.68;;;1.30;97.40;;;;;;5085169;28;20398;-57
2021/12/23 08:07:21;;;;;;;14.82;7.78;;;1.20;97.40;;;;;;5081388;28;20098;-58
2021/12/23 08:09:46;;;;;;;15.20;7.70;;;1.20;96.60;;;;;;5085726;28;20044;-58
2021/12/23 08:12:12;;;;;;;16.42;7.63;;;1.30;96.50;;;;;;5081343;28;20063;-59
2021/12/23 08:14:37;;;;;;;13.73;7.45;;;1.30;95.00;;;;;;5083917;28;20659;-56
2021/12/23 08:17:03;;;;;;;13.65;7.72;;;1.30;94.80;;;;;;5080395;28;20556;-57
2021/12/23 08:19:29;;;;;;;24.75;11.40;;;1.40;95.50;;;;;;5087194;28;20051;-55
2021/12/23 08:21:54;;;;;;;18.60;10.07;;;1.30;96.50;;;;;;5085214;28;20048;-58
2021/12/23 08:24:20;;;;;;;21.77;9.75;;;1.30;98.30;;;;;;5087697;28;20089;-56
2021/12/23 08:26:51;;;;;;;26.33;13.27;;;1.40;98.60;;;;;;5078874;28;20036;-55
2021/12/23 08:29:19;;;;;;;31.00;16.13;;;1.30;99.70;;;;;;5089763;28;20656;-57
2021/12/23 08:31:53;;;;;;;27.33;15.23;;;1.20;99.90;;;;;;5083475;28;20521;-59
2021/12/23 08:34:23;;;;;;;34.22;16.92;;;0.80;99.90;;;;;;5086391;28;20047;-59
2021/12/23 08:36:50;;;;;;;37.22;19.42;;;0.70;99.90;;;;;;5078627;28;20044;-56
2021/12/23 08:39:17;;;;;;;31.70;17.00;;;0.60;99.90;;;;;;5087078;28;20048;-58
2021/12/23 08:41:43;;;;;;;32.55;16.65;;;0.40;99.90;;;;;;5077538;28;20048;-59
2021/12/23 08:44:08;;;;;;;33.08;17.77;;;0.40;99.90;;;;;;5085240;28;20105;-58
2021/12/23 08:46:34;;;;;;;36.33;19.05;;;0.50;99.90;;;;;;5079784;28;20503;-58
2021/12/23 08:49:00;;;;;;;34.13;19.05;;;0.60;99.90;;;;;;5078838;28;20111;-59
2021/12/23 08:51:25;;;;;;;34.28;18.00;;;0.70;99.90;;;;;;5080673;28;20073;-55
2021/12/23 08:53:51;;;;;;;31.52;18.40;;;0.60;99.90;;;;;;5087966;28;20116;-56
2021/12/23 08:56:16;;;;;;;35.20;18.02;;;0.60;99.90;;;;;;5078997;28;20047;-57
2021/12/23 08:58:42;;;;;;;35.40;18.08;;;0.70;99.90;;;;;;5087445;28;20036;-55
2021/12/23 09:01:08;;;;;;;34.38;18.20;;;0.70;99.90;;;;;;5082296;28;20104;-56
2021/12/23 09:03:35;;;;;;;41.50;20.17;;;0.70;99.90;;;;;;5087052;28;20048;-57
2021/12/23 09:06:03;;;;;;;39.95;22.70;;;0.70;99.90;;;;;;5073832;28;20486;-56
2021/12/23 09:08:28;;;;;;;36.70;19.15;;;0.70;99.90;;;;;;5088432;28;20751;-59
2021/12/23 09:10:55;;;;;;;40.08;20.20;;;0.80;99.90;;;;;;5084170;28;20032;-58
2021/12/23 09:13:21;;;;;;;38.30;20.02;;;0.80;99.90;;;;;;5085543;28;20119;-59
2021/12/23 09:15:48;;;;;;;42.58;19.88;;;0.70;99.90;;;;;;5080441;28;20056;-57
2021/12/23 09:18:13;;;;;;;36.28;18.92;;;0.80;99.90;;;;;;5088011;28;20074;-54
2021/12/23 09:20:39;;;;;;;33.30;17.15;;;0.80;99.90;;;;;;5082941;28;20048;-59
2021/12/23 09:23:07;;;;;;;29.75;17.13;;;0.90;99.90;;;;;;5087693;28;20043;-58
2021/12/23 09:25:33;;;;;;;38.00;19.10;;;0.90;99.90;;;;;;5075975;28;20078;-58
2021/12/23 09:28:25;;;;;;;36.05;19.27;;;0.90;99.90;;;;;;5086141;28;20039;-57
2021/12/23 09:33:37;;;;;;;34.08;18.83;;;1.00;99.90;;;;;;5088093;28;20044;-58
2021/12/23 09:36:04;;;;;;;39.38;19.45;;;1.10;99.90;;;;;;5083280;28;20044;-57
2021/12/23 09:38:30;;;;;;;20.48;11.98;;;1.10;99.90;;;;;;5087173;28;20408;-59
2021/12/23 09:41:03;;;;;;;21.60;11.23;;;1.20;99.90;;;;;;5082129;28;20780;-54
2021/12/23 09:43:31;;;;;;;23.98;11.77;;;1.40;99.90;;;;;;5087252;28;20070;-51
2021/12/23 09:45:58;;;;;;;14.88;8.63;;;1.60;99.90;;;;;;5079411;28;20449;-58
2021/12/23 09:48:27;;;;;;;15.35;7.28;;;1.70;98.30;;;;;;5087789;28;20036;-59
2021/12/23 09:50:54;;;;;;;13.18;6.75;;;1.90;96.50;;;;;;5081943;28;20040;-59
2021/12/23 09:53:22;;;;;;;9.70;5.00;;;2.00;95.90;;;;;;5086409;28;20081;-58
2021/12/23 09:55:49;;;;;;;15.95;7.65;;;2.20;94.90;;;;;;5075850;28;20048;-56
2021/12/23 09:58:15;;;;;;;17.42;8.27;;;2.30;95.80;;;;;;5079486;28;20040;-58
2021/12/23 10:00:45;;;;;;;11.90;6.15;;;2.40;96.80;;;;;;5081614;28;20043;-59
2021/12/23 10:03:16;;;;;;;12.18;6.10;;;2.40;95.00;;;;;;5086807;28;20035;-57
2021/12/23 10:05:43;;;;;;;11.85;5.95;;;2.40;96.00;;;;;;5081891;28;20089;-57
2021/12/23 10:08:11;;;;;;;10.95;5.40;;;2.50;95.20;;;;;;5085576;28;20031;-58
2021/12/23 10:10:44;;;;;;;10.90;4.22;;;2.60;93.80;;;;;;5082244;28;20036;-58
2021/12/23 10:38:03;;;;;;;9.15;5.05;;;3.90;69.60;;;;;;5077680;28;20491;-61
2021/12/23 10:40:30;;;;;;;10.13;5.22;;;4.00;66.60;;;;;;5076769;28;20039;-59
2021/12/23 10:42:56;;;;;;;9.88;4.85;;;4.10;63.90;;;;;;5086551;28;20036;-61
2021/12/23 10:45:22;;;;;;;9.13;4.68;;;4.10;68.60;;;;;;5080505;28;20088;-59
2021/12/23 10:50:40;;;;;;;9.13;4.40;;;4.00;69.70;;;;;;5082220;28;20033;-59
2021/12/23 10:53:29;;;;;;;13.55;4.60;;;4.10;73.00;;;;;;5077663;28;20507;-58
2021/12/23 10:59:09;;;;;;;9.35;4.70;;;4.10;74.90;;;;;;5085964;28;20040;-58
2021/12/23 11:01:59;;;;;;;10.90;5.55;;;4.20;75.60;;;;;;5079324;28;20032;-57
2021/12/23 11:04:25;;;;;;;16.33;5.88;;;4.30;67.80;;;;;;5082282;28;20068;-58
2021/12/23 11:07:16;;;;;;;16.42;5.95;;;4.20;72.60;;;;;;5081588;28;20071;-58
2021/12/23 11:10:17;;;;;;;14.27;5.20;;;4.30;71.40;;;;;;5082068;28;20040;-57
2021/12/23 11:30:49;;;;;;;9.70;4.80;;;4.30;78.80;;;;;;5081530;28;20090;-58
2021/12/23 11:41:32;;;;;;;20.58;6.85;;;4.40;85.00;;;;;;5075485;28;20032;-60
2021/12/23 11:44:01;;;;;;;14.65;5.28;;;4.40;84.40;;;;;;5082555;28;20036;-60
2021/12/23 11:46:32;;;;;;;32.22;8.52;;;4.50;86.10;;;;;;5082181;28;20040;-60
2021/12/23 11:49:01;;;;;;;23.55;6.72;;;4.50;87.50;;;;;;5082138;28;20116;-60
2021/12/23 11:51:31;;;;;;;11.93;5.45;;;4.50;91.20;;;;;;5073369;28;20051;-60
2021/12/23 11:53:59;;;;;;;10.45;4.35;;;4.50;88.50;;;;;;5083793;28;20051;-59
2021/12/23 11:56:26;;;;;;;9.02;4.75;;;4.60;89.00;;;;;;5075768;28;20167;-60
2021/12/23 11:58:55;;;;;;;9.15;5.15;;;4.70;86.30;;;;;;5083932;28;20101;-60
2021/12/23 12:01:24;;;;;;;11.07;4.93;;;4.70;88.40;;;;;;5079677;28;20051;-58
2021/12/23 12:04:05;;;;;;;8.20;4.22;;;4.80;88.60;;;;;;5082786;28;20040;-61
2021/12/23 12:06:38;;;;;;;7.53;4.07;;;4.80;89.80;;;;;;5081514;28;20051;-60
2021/12/23 12:09:13;;;;;;;11.07;4.35;;;4.90;90.70;;;;;;5079337;28;20028;-60
2021/12/23 12:11:39;;;;;;;7.35;4.40;;;4.90;92.90;;;;;;5063049;28;20040;-58
2021/12/23 12:14:40;;;;;;;8.73;4.25;;;4.80;93.30;;;;;;5082056;28;20050;-60
2021/12/23 12:17:39;;;;;;;8.57;4.38;;;4.80;93.00;;;;;;5086847;28;20499;-58
2021/12/23 12:20:35;;;;;;;11.27;4.18;;;4.90;95.40;;;;;;5028599;28;20051;-60
2021/12/23 12:23:14;;;;;;;8.27;4.32;;;4.90;96.00;;;;;;5082889;28;20043;-56
2021/12/23 12:25:44;;;;;;;12.38;5.25;;;4.90;97.20;;;;;;5079077;28;20094;-59
2021/12/23 12:28:36;;;;;;;15.32;5.13;;;4.90;98.40;;;;;;5089348;28;20040;-59
2021/12/23 12:31:11;;;;;;;10.35;4.68;;;4.90;99.70;;;;;;5073262;28;20862;-58
2021/12/23 12:33:40;;;;;;;12.23;4.57;;;5.00;99.90;;;;;;5088440;28;20042;-60
2021/12/23 12:36:14;;;;;;;11.65;5.53;;;5.00;99.90;;;;;;5084061;28;20040;-60
2021/12/23 12:38:47;;;;;;;10.57;4.57;;;4.90;99.90;;;;;;5088908;28;20040;-59
2021/12/23 12:41:23;;;;;;;11.82;5.20;;;4.90;99.90;;;;;;5079995;28;20044;-57
2021/12/23 12:44:27;;;;;;;11.73;5.33;;;4.90;99.90;;;;;;5086546;28;20122;-61
2021/12/23 12:47:13;;;;;;;12.80;5.22;;;4.90;99.90;;;;;;5076404;28;20045;-60
2021/12/23 12:49:49;;;;;;;10.52;4.35;;;5.00;99.90;;;;;;5083446;28;20036;-58
2021/12/23 12:52:30;;;;;;;9.23;4.75;;;5.00;99.90;;;;;;5081924;28;20067;-58
2021/12/23 12:55:03;;;;;;;9.95;4.78;;;5.10;99.90;;;;;;5082647;28;20442;-60
2021/12/23 12:57:47;;;;;;;11.88;5.28;;;5.10;99.90;;;;;;5082821;28;20079;-58
2021/12/23 13:00:16;;;;;;;12.73;5.45;;;5.10;99.90;;;;;;5083770;28;20060;-60
2021/12/23 13:02:49;;;;;;;11.68;4.97;;;5.20;99.90;;;;;;5074889;28;20059;-55
2021/12/23 13:05:14;;;;;;;13.60;5.65;;;5.20;99.90;;;;;;5081522;28;20040;-60
2021/12/23 13:07:42;;;;;;;20.40;7.00;;;5.10;99.90;;;;;;5085364;28;20040;-61
2021/12/23 13:10:14;;;;;;;13.52;5.80;;;5.10;99.90;;;;;;5083955;28;20037;-61
2021/12/23 13:12:56;;;;;;;15.38;6.10;;;5.10;99.90;;;;;;5086490;28;20066;-60
2021/12/23 13:15:29;;;;;;;14.02;5.93;;;5.20;99.90;;;;;;5082812;28;20566;-60
2021/12/23 13:18:01;;;;;;;12.75;5.45;;;5.20;99.90;;;;;;5085425;28;20044;-58
2021/12/23 13:20:35;;;;;;;11.77;5.32;;;5.20;99.90;;;;;;5081666;28;20041;-60
2021/12/23 13:23:04;;;;;;;15.65;5.78;;;5.20;99.90;;;;;;5086257;28;20036;-60
2021/12/23 13:25:30;;;;;;;15.30;5.80;;;5.20;99.90;;;;;;5077064;28;20127;-60
2021/12/23 13:27:58;;;;;;;12.25;5.97;;;5.20;99.90;;;;;;5086567;28;20633;-61
2021/12/23 13:30:23;;;;;;;21.25;6.78;;;5.10;99.90;;;;;;5081488;28;20041;-61
2021/12/23 13:33:02;;;;;;;11.07;5.72;;;5.10;99.90;;;;;;5087645;28;20047;-59
2021/12/23 13:35:30;;;;;;;12.27;6.55;;;5.10;99.90;;;;;;5081608;28;20040;-58
2021/12/23 13:37:56;;;;;;;11.50;5.93;;;5.10;99.90;;;;;;5087726;28;20047;-61
2021/12/23 13:40:34;;;;;;;14.30;6.93;;;5.10;99.90;;;;;;5078249;28;20044;-60
2021/12/23 13:43:00;;;;;;;13.35;6.95;;;5.10;99.90;;;;;;5076565;28;20170;-59
2021/12/23 13:45:28;;;;;;;12.88;5.97;;;5.10;99.90;;;;;;5077771;28;20040;-58
2021/12/23 13:47:56;;;;;;;11.95;6.25;;;5.10;99.90;;;;;;5084067;28;20074;-60
2021/12/23 13:50:25;;;;;;;18.10;7.35;;;5.10;99.90;;;;;;5083106;28;20495;-59
2021/12/23 13:52:52;;;;;;;12.75;6.70;;;5.10;99.90;;;;;;5087289;28;20043;-59
2021/12/23 13:55:27;;;;;;;13.73;6.72;;;5.10;99.90;;;;;;5080929;28;20040;-61
2021/12/23 13:57:58;;;;;;;13.97;6.50;;;5.10;99.90;;;;;;5086741;28;20046;-59
2021/12/23 14:00:30;;;;;;;15.93;6.28;;;5.10;99.90;;;;;;5058443;28;20384;-60
2021/12/23 14:03:14;;;;;;;16.80;6.63;;;5.10;99.90;;;;;;5085530;28;20039;-60
2021/12/23 14:05:40;;;;;;;14.88;6.43;;;5.20;99.90;;;;;;5082580;28;20088;-59